createdAt,value
2023-05-14T00:09:50.949Z,953.63
2023-05-14T00:19:52.491Z,941.92
2023-05-14T00:29:54.016Z,938.28
2023-05-14T00:39:55.777Z,937.75
2023-05-14T00:49:57.176Z,940.05
2023-05-14T00:59:58.987Z,944.80
2023-05-14T01:10:01.212Z,932.25
2023-05-14T01:20:02.658Z,930.00
2023-05-14T01:30:36.715Z,919.97
2023-05-14T01:40:38.140Z,903.72
2023-05-14T01:50:39.557Z,893.38
2023-05-14T02:00:41.081Z,883.63
2023-05-14T02:10:42.547Z,871.50
2023-05-14T02:20:44.074Z,879.38
2023-05-14T02:30:45.622Z,896.45
2023-05-14T02:40:46.995Z,855.22
2023-05-14T02:50:49.805Z,856.28
2023-05-14T03:00:51.360Z,842.90
2023-05-14T03:10:53.169Z,837.78
2023-05-14T03:20:54.699Z,838.60
2023-05-14T03:30:56.266Z,824.03
2023-05-14T03:40:57.730Z,817.15
2023-05-14T03:50:59.310Z,807.05
2023-05-14T04:01:00.839Z,815.40
2023-05-14T04:11:02.247Z,821.72
2023-05-14T04:21:03.750Z,818.42
2023-05-14T04:31:05.433Z,817.97
2023-05-14T04:41:07.030Z,816.55
2023-05-14T04:51:08.467Z,808.35
2023-05-14T05:01:09.901Z,814.40
2023-05-14T05:11:11.330Z,818.92
2023-05-14T05:21:12.725Z,834.28
2023-05-14T05:31:14.143Z,829.97
2023-05-14T05:41:15.547Z,857.65
2023-05-14T05:51:16.927Z,916.95
2023-05-14T06:01:18.452Z,959.00
2023-05-14T06:11:19.852Z,999.70
2023-05-14T06:21:21.561Z,999.90
2023-05-14T06:31:23.007Z,999.90
2023-05-14T06:41:24.575Z,999.90
2023-05-14T06:51:26.100Z,999.90
2023-05-14T07:01:27.576Z,999.90
2023-05-14T07:11:30.367Z,999.90
2023-05-14T07:21:32.510Z,999.90
2023-05-14T07:31:33.987Z,999.90
2023-05-14T07:41:35.629Z,999.90
2023-05-14T07:51:37.030Z,999.90
2023-05-14T08:01:39.426Z,999.90
2023-05-14T08:11:41.060Z,999.90
2023-05-14T08:21:42.476Z,999.90
2023-05-14T08:31:43.918Z,999.90
2023-05-14T08:41:45.416Z,999.90
2023-05-14T08:51:49.828Z,999.90
2023-05-14T09:01:54.437Z,999.90
2023-05-14T09:11:56.110Z,999.90
2023-05-14T09:22:00.820Z,999.90
2023-05-14T09:32:05.384Z,999.90
2023-05-14T09:42:07.127Z,999.90
2023-05-14T09:52:08.726Z,999.90
2023-05-14T10:02:23.165Z,999.90
2023-05-14T10:12:24.747Z,999.90
2023-05-14T10:22:27.680Z,999.90
2023-05-14T10:32:33.024Z,999.90
2023-05-14T10:42:43.406Z,999.90
2023-05-14T10:52:45.407Z,999.90
2023-05-14T11:02:46.876Z,999.90
2023-05-14T11:12:49.436Z,999.90
2023-05-14T11:22:53.837Z,999.90
2023-05-14T11:32:55.678Z,999.90
2023-05-14T11:42:57.232Z,999.90
2023-05-14T11:52:58.653Z,999.90
2023-05-14T12:03:00.094Z,999.90
2023-05-14T12:13:01.537Z,999.90
2023-05-14T12:23:02.925Z,999.90
2023-05-14T12:33:04.395Z,999.90
2023-05-14T12:43:06.159Z,999.90
2023-05-14T12:53:07.538Z,999.90
2023-05-14T13:03:08.951Z,999.90
2023-05-14T13:13:11.561Z,999.90
2023-05-14T13:23:13.522Z,999.90
2023-05-14T13:33:14.926Z,999.90
2023-05-14T13:43:16.835Z,999.90
2023-05-14T13:53:19.659Z,999.90
2023-05-14T14:03:21.205Z,999.90
2023-05-14T14:13:22.939Z,999.90
2023-05-14T14:23:24.424Z,999.90
2023-05-14T14:33:25.875Z,999.90
2023-05-14T14:43:27.408Z,999.90
2023-05-14T14:53:29.074Z,999.90
2023-05-14T15:03:31.268Z,999.90
2023-05-14T15:13:32.914Z,999.90
2023-05-14T15:23:34.418Z,999.90
2023-05-14T15:33:36.050Z,999.90
2023-05-14T15:43:37.591Z,999.90
2023-05-14T15:53:38.974Z,999.90
2023-05-14T16:03:40.628Z,999.90
2023-05-14T16:13:42.252Z,999.90
2023-05-14T16:23:43.818Z,999.90
2023-05-14T16:33:45.282Z,999.90
2023-05-14T16:43:46.659Z,999.90
2023-05-14T16:53:48.193Z,999.90
2023-05-14T17:03:49.775Z,999.90
2023-05-14T17:13:51.309Z,999.90
2023-05-14T17:23:52.849Z,999.90
2023-05-14T17:33:54.223Z,999.90
2023-05-14T17:43:55.788Z,999.90
2023-05-14T17:53:57.274Z,999.90
2023-05-14T18:03:58.723Z,999.90
2023-05-14T18:14:00.757Z,999.90
2023-05-14T18:24:02.772Z,999.90
2023-05-14T18:34:04.342Z,999.90
2023-05-14T18:44:05.924Z,999.90
2023-05-14T18:54:07.502Z,999.90
2023-05-14T19:04:09.091Z,999.90
2023-05-14T19:14:11.396Z,999.90
2023-05-14T19:24:12.778Z,999.90
2023-05-14T19:34:14.197Z,999.90
2023-05-14T19:44:15.567Z,999.90
2023-05-14T19:54:17.015Z,999.90
2023-05-14T20:04:19.810Z,999.90
2023-05-14T20:14:21.347Z,999.90
2023-05-14T20:24:22.965Z,999.90
2023-05-14T20:34:24.705Z,999.90
2023-05-14T20:44:26.217Z,999.90
2023-05-14T20:54:27.613Z,999.90
2023-05-14T21:04:29.165Z,999.90
2023-05-14T21:14:30.800Z,999.90
2023-05-14T21:24:32.200Z,999.90
2023-05-14T21:34:33.712Z,999.90
2023-05-14T21:44:35.215Z,999.90
2023-05-14T21:54:36.609Z,999.90
2023-05-14T22:04:38.002Z,999.90
2023-05-14T22:14:39.541Z,999.90
2023-05-14T22:24:40.948Z,999.90
2023-05-14T22:34:42.339Z,999.90
2023-05-14T22:44:43.879Z,999.90
2023-05-14T22:54:46.625Z,999.90
2023-05-14T23:04:48.231Z,999.90
2023-05-14T23:14:49.860Z,999.90
2023-05-14T23:24:51.245Z,999.90
2023-05-14T23:34:52.640Z,999.90
2023-05-14T23:44:54.032Z,999.47
2023-05-14T23:54:55.414Z,996.90
